ZSNB

Ningbo Lishe International Airport

Ningbo, China
TAF ZSNB 200134Z 2006/2106 34006G11MPS 3500 BR SCT030 TX10/2006Z TN02/2021Z
Issued Valid From Valid To
Jan-20 @ 01:34 UTC
(9 hours ago)
Jan-20 @ 06:00 UTC
(5 hours ago)
Jan-21 @ 06:00 UTC
(in 19 hours)
Jan-20 @ 06:00 to Jan-21 @ 06:00
TAF ZSNB 200134Z 2006/2106 34006G11MPS 3500 BR SCT030 TX10/2006Z TN02/2021Z
Wind Visibility Clouds Conditions
340° at 12 knots
 Gusting to 21 knots
3,492 meters
  • Scattered at 3,000' AGL
  • Mist
TAF ZSNB 200134Z 2006/2106 34006G11MPS 3500 BR SCT030 TX10/2006Z TN02/2021Z
Issued Jan-20 @ 01:34 UTC
(9 hours ago)
Valid From Jan-20 @ 06:00 UTC
(5 hours ago)
Valid To Jan-21 @ 06:00 UTC
(in 19 hours)
Jan-20 @ 06:00 - Jan-21 @ 06:00
Wind Visibility
340° at 12 knots
 Gusting to 21 knots
3,492 meters
Clouds
  • Scattered at 3,000' AGL
Conditions
  • Mist